createdAt,value
2023-02-11T00:01:49.106Z,31.85
2023-02-11T00:04:15.764Z,23.20
2023-02-11T00:06:42.458Z,25.42
2023-02-11T00:09:10.641Z,30.15
2023-02-11T00:11:37.364Z,28.17
2023-02-11T00:14:06.693Z,29.00
2023-02-11T00:16:33.479Z,27.42
2023-02-11T00:19:01.166Z,33.92
2023-02-11T00:21:28.313Z,32.28
2023-02-11T00:23:57.183Z,26.92
2023-02-11T00:26:31.846Z,27.95
2023-02-11T00:28:59.187Z,23.30
2023-02-11T00:31:26.059Z,30.83
2023-02-11T00:33:53.125Z,27.92
2023-02-11T00:36:22.224Z,28.00
2023-02-11T00:38:49.931Z,26.33
2023-02-11T00:41:17.340Z,27.88
2023-02-11T00:43:44.245Z,27.83
2023-02-11T00:46:11.763Z,28.30
2023-02-11T00:48:38.456Z,31.48
2023-02-11T00:51:05.475Z,30.00
2023-02-11T00:53:32.846Z,30.55
2023-02-11T00:56:01.028Z,33.63
2023-02-11T00:58:28.501Z,30.85
2023-02-11T01:00:56.003Z,25.85
2023-02-11T01:03:24.356Z,25.27
2023-02-11T01:05:51.279Z,30.55
2023-02-11T01:08:18.133Z,25.77
2023-02-11T01:10:45.094Z,27.05
2023-02-11T01:13:11.837Z,25.23
2023-02-11T01:15:38.500Z,31.27
2023-02-11T01:18:05.983Z,19.20
2023-02-11T01:20:32.716Z,25.90
2023-02-11T01:22:59.336Z,27.02
2023-02-11T01:25:25.972Z,23.45
2023-02-11T01:27:52.629Z,31.50
2023-02-11T01:30:19.484Z,23.77
2023-02-11T01:32:47.302Z,24.80
2023-02-11T01:35:13.955Z,23.23
2023-02-11T01:37:40.766Z,24.50
2023-02-11T01:40:12.649Z,30.88
2023-02-11T01:42:39.282Z,24.80
2023-02-11T01:45:42.673Z,30.00
2023-02-11T01:48:12.519Z,25.95
2023-02-11T01:50:41.589Z,26.77
2023-02-11T01:53:29.061Z,27.15
2023-02-11T01:56:14.934Z,24.20
2023-02-11T01:58:43.803Z,25.42
2023-02-11T02:01:13.900Z,25.02
2023-02-11T02:03:42.754Z,29.63
2023-02-11T02:06:17.206Z,34.03
2023-02-11T02:08:57.017Z,23.73
2023-02-11T02:11:24.191Z,29.08
2023-02-11T02:13:50.783Z,27.52
2023-02-11T02:16:22.365Z,31.55
2023-02-11T02:18:52.013Z,31.45
2023-02-11T02:21:46.580Z,28.95
2023-02-11T02:24:38.263Z,24.58
2023-02-11T02:27:26.757Z,28.30
2023-02-11T02:30:11.490Z,21.77
2023-02-11T02:32:41.071Z,28.88
2023-02-11T02:35:25.742Z,28.80
2023-02-11T02:38:04.640Z,34.45
2023-02-11T02:40:39.305Z,29.55
2023-02-11T02:43:07.824Z,25.73
2023-02-11T02:45:34.552Z,33.28
2023-02-11T02:48:01.213Z,29.98
2023-02-11T02:50:31.885Z,25.27
2023-02-11T02:53:20.499Z,35.75
2023-02-11T02:56:02.797Z,26.40
2023-02-11T02:58:41.646Z,30.60
2023-02-11T03:01:15.762Z,28.92
2023-02-11T03:03:54.528Z,35.78
2023-02-11T03:06:32.431Z,31.50
2023-02-11T03:08:59.067Z,31.75
2023-02-11T03:11:26.157Z,30.20
2023-02-11T03:13:53.207Z,31.48
2023-02-11T03:16:22.242Z,30.05
2023-02-11T03:18:53.533Z,28.83
2023-02-11T03:21:20.772Z,33.10
2023-02-11T03:23:55.103Z,30.40
2023-02-11T03:26:24.629Z,35.58
2023-02-11T03:29:12.325Z,35.13
2023-02-11T03:31:50.032Z,31.77
2023-02-11T03:34:30.658Z,32.55
2023-02-11T03:37:02.629Z,37.97
2023-02-11T03:39:35.291Z,31.88
2023-02-11T03:42:03.009Z,35.88
2023-02-11T03:44:33.360Z,41.17
2023-02-11T03:47:01.254Z,37.53
2023-02-11T03:49:28.729Z,37.70
2023-02-11T03:51:56.805Z,45.60
2023-02-11T03:54:27.825Z,43.00
2023-02-11T03:56:57.360Z,37.30
2023-02-11T03:59:24.170Z,29.48
2023-02-11T04:01:51.018Z,33.95
2023-02-11T04:04:18.084Z,42.70
2023-02-11T04:06:44.803Z,31.73
2023-02-11T04:09:12.128Z,43.10
2023-02-11T04:11:38.757Z,43.90
2023-02-11T04:14:05.448Z,33.85
2023-02-11T04:16:32.086Z,36.50
2023-02-11T04:18:58.719Z,39.25
2023-02-11T04:21:25.422Z,48.67
2023-02-11T04:23:52.062Z,42.15
2023-02-11T04:26:18.613Z,49.90
2023-02-11T04:28:45.213Z,38.45
2023-02-11T04:31:12.888Z,39.20
2023-02-11T04:33:39.662Z,44.03
2023-02-11T04:36:06.693Z,42.55
2023-02-11T04:38:33.404Z,40.53
2023-02-11T04:41:00.591Z,49.13
2023-02-11T04:43:27.381Z,42.70
2023-02-11T04:45:57.937Z,48.72
2023-02-11T04:48:25.304Z,49.50
2023-02-11T04:50:51.957Z,40.75
2023-02-11T04:53:18.635Z,48.30
2023-02-11T04:55:45.370Z,47.83
2023-02-11T04:58:12.115Z,49.95
2023-02-11T05:00:38.684Z,37.13
2023-02-11T05:03:05.316Z,51.65
2023-02-11T05:05:31.899Z,48.20
2023-02-11T05:07:58.543Z,50.65
2023-02-11T05:10:25.234Z,47.78
2023-02-11T05:12:54.024Z,50.40
2023-02-11T05:15:22.046Z,46.20
2023-02-11T05:17:48.724Z,52.17
2023-02-11T05:20:15.356Z,48.38
2023-02-11T05:22:42.045Z,49.80
2023-02-11T05:25:08.950Z,46.50
2023-02-11T05:27:35.691Z,44.03
2023-02-11T05:30:02.636Z,53.20
2023-02-11T05:32:29.340Z,49.83
2023-02-11T05:34:55.926Z,48.13
2023-02-11T05:37:22.643Z,50.42
2023-02-11T05:39:49.413Z,50.35
2023-02-11T05:42:16.033Z,54.75
2023-02-11T05:44:42.684Z,49.83
2023-02-11T05:47:09.366Z,44.28
2023-02-11T05:49:35.946Z,49.33
2023-02-11T05:52:02.642Z,48.95
2023-02-11T05:54:29.202Z,52.25
2023-02-11T05:56:55.963Z,53.53
2023-02-11T05:59:22.551Z,47.03
2023-02-11T06:01:49.372Z,56.15
2023-02-11T06:04:16.113Z,55.03
2023-02-11T06:06:42.741Z,48.50
2023-02-11T06:09:10.160Z,53.70
2023-02-11T06:11:36.877Z,52.70
2023-02-11T06:14:03.614Z,57.60
2023-02-11T06:16:30.377Z,55.92
2023-02-11T06:18:57.007Z,59.15
2023-02-11T06:21:28.582Z,55.78
2023-02-11T06:24:00.154Z,53.83
2023-02-11T06:26:26.901Z,63.53
2023-02-11T06:28:53.716Z,58.83
2023-02-11T06:31:20.471Z,68.22
2023-02-11T06:33:47.216Z,60.25
2023-02-11T06:36:18.794Z,56.17
2023-02-11T06:38:46.653Z,55.53
2023-02-11T06:41:14.503Z,62.33
2023-02-11T06:43:41.715Z,66.57
2023-02-11T06:46:08.675Z,56.88
2023-02-11T06:48:35.900Z,63.80
2023-02-11T06:51:04.950Z,66.05
2023-02-11T06:53:32.644Z,59.53
2023-02-11T06:56:07.442Z,57.47
2023-02-11T06:58:34.066Z,59.67
2023-02-11T07:01:04.184Z,57.38
2023-02-11T07:03:31.479Z,61.78
2023-02-11T07:05:58.186Z,56.47
2023-02-11T07:08:25.450Z,61.47
2023-02-11T07:10:52.014Z,57.17
2023-02-11T07:13:18.619Z,51.53
2023-02-11T07:15:45.294Z,59.95
2023-02-11T07:18:14.614Z,59.40
2023-02-11T07:20:41.497Z,51.72
2023-02-11T07:23:08.122Z,58.63
2023-02-11T07:25:35.628Z,59.55
2023-02-11T07:28:03.464Z,61.13
2023-02-11T07:30:30.232Z,56.28
2023-02-11T07:32:57.178Z,57.13
2023-02-11T07:35:23.849Z,60.33
2023-02-11T07:37:50.462Z,61.10
2023-02-11T07:40:17.277Z,51.05
2023-02-11T07:42:44.028Z,60.17
2023-02-11T07:45:10.811Z,59.95
2023-02-11T07:47:38.202Z,61.53
2023-02-11T07:50:04.908Z,63.83
2023-02-11T07:52:31.477Z,55.67
2023-02-11T07:55:02.665Z,58.05
2023-02-11T07:57:31.149Z,46.80
2023-02-11T07:59:57.818Z,57.40
2023-02-11T08:02:24.481Z,48.97
2023-02-11T08:04:51.358Z,52.85
2023-02-11T08:07:18.463Z,50.90
2023-02-11T08:09:45.186Z,48.22
2023-02-11T08:12:11.922Z,56.15
2023-02-11T08:14:38.574Z,52.53
2023-02-11T08:17:05.330Z,54.67
2023-02-11T08:19:34.830Z,55.65
2023-02-11T08:22:02.000Z,54.10
2023-02-11T08:24:28.773Z,54.55
2023-02-11T08:26:55.449Z,45.70
2023-02-11T08:29:22.031Z,57.58
2023-02-11T08:31:49.067Z,32.58
2023-02-11T08:34:19.024Z,27.80
2023-02-11T08:36:47.308Z,29.50
2023-02-11T08:39:19.727Z,27.02
2023-02-11T08:41:49.138Z,26.75
2023-02-11T08:44:16.523Z,23.38
2023-02-11T08:46:43.224Z,33.30
2023-02-11T08:49:10.010Z,30.88
2023-02-11T08:51:36.619Z,25.65
2023-02-11T08:54:03.475Z,24.83
2023-02-11T08:56:31.589Z,32.15
2023-02-11T08:58:58.251Z,26.52
2023-02-11T09:01:28.453Z,23.15
2023-02-11T09:03:55.642Z,26.00
2023-02-11T09:06:23.398Z,29.35
2023-02-11T09:08:52.835Z,27.58
2023-02-11T09:11:24.693Z,32.95
2023-02-11T09:13:53.982Z,23.83
2023-02-11T09:16:24.233Z,22.13
2023-02-11T09:18:51.045Z,25.05
2023-02-11T09:21:18.378Z,20.48
2023-02-11T09:23:47.633Z,24.48
2023-02-11T09:26:19.791Z,25.27
2023-02-11T09:28:47.046Z,24.35
2023-02-11T09:31:16.645Z,25.23
2023-02-11T09:33:47.980Z,17.88
2023-02-11T09:36:20.626Z,19.98
2023-02-11T09:38:47.907Z,18.38
2023-02-11T09:41:23.673Z,22.75
2023-02-11T09:43:56.169Z,26.67
2023-02-11T09:46:23.325Z,24.20
2023-02-11T09:48:52.376Z,16.10
2023-02-11T09:51:34.006Z,18.92
2023-02-11T09:54:05.932Z,16.60
2023-02-11T09:56:32.580Z,18.75
2023-02-11T09:58:59.343Z,16.75
2023-02-11T10:01:42.373Z,19.73
2023-02-11T10:04:34.654Z,24.43
2023-02-11T10:07:23.305Z,17.52
2023-02-11T10:10:13.269Z,18.55
2023-02-11T10:13:00.403Z,19.38
2023-02-11T10:15:43.767Z,18.50
2023-02-11T10:18:34.028Z,23.85
2023-02-11T10:21:17.014Z,14.32
2023-02-11T10:23:49.115Z,15.85
2023-02-11T10:26:17.447Z,16.92
2023-02-11T10:28:49.941Z,16.13
2023-02-11T10:31:22.088Z,18.38
2023-02-11T10:33:59.830Z,17.42
2023-02-11T10:36:33.297Z,13.05
2023-02-11T10:39:00.754Z,15.02
2023-02-11T10:41:32.451Z,22.58
2023-02-11T10:44:00.839Z,11.50
2023-02-11T10:46:31.737Z,13.10
2023-02-11T10:48:58.386Z,15.25
2023-02-11T10:51:31.443Z,14.10
2023-02-11T10:54:04.043Z,19.45
2023-02-11T10:56:32.754Z,17.00
2023-02-11T10:59:01.004Z,11.40
2023-02-11T11:01:40.188Z,12.82
2023-02-11T11:04:07.315Z,13.60
2023-02-11T11:06:35.184Z,12.13
2023-02-11T11:09:02.080Z,8.65
2023-02-11T11:11:28.833Z,11.70
2023-02-11T11:13:59.198Z,11.70
2023-02-11T11:16:28.541Z,10.38
2023-02-11T11:19:20.426Z,8.18
2023-02-11T11:21:49.659Z,14.57
2023-02-11T11:24:29.789Z,13.02
2023-02-11T11:26:59.617Z,9.63
2023-02-11T11:29:32.125Z,12.10
2023-02-11T11:32:07.264Z,15.45
2023-02-11T11:34:40.594Z,12.05
2023-02-11T11:37:18.711Z,12.48
2023-02-11T11:39:49.806Z,11.20
2023-02-11T11:42:32.638Z,10.93
2023-02-11T11:45:22.931Z,9.25
2023-02-11T11:48:13.677Z,9.75
2023-02-11T11:50:45.955Z,9.88
2023-02-11T11:53:16.818Z,9.00
2023-02-11T11:55:44.248Z,8.95
2023-02-11T11:58:16.354Z,14.55
2023-02-11T12:00:42.878Z,7.75
2023-02-11T12:03:28.069Z,11.93
2023-02-11T12:06:22.192Z,14.52
2023-02-11T12:08:58.623Z,12.38
2023-02-11T12:11:45.861Z,13.60
2023-02-11T12:15:08.289Z,7.85
2023-02-11T12:18:39.427Z,21.30
2023-02-11T12:21:13.226Z,16.50
2023-02-11T12:26:45.691Z,15.95
2023-02-11T12:29:37.364Z,13.95
2023-02-11T12:32:25.761Z,19.58
2023-02-11T12:35:07.481Z,14.30
2023-02-11T12:37:46.515Z,17.45
2023-02-11T12:40:36.379Z,15.75
2023-02-11T12:43:20.871Z,19.77
2023-02-11T12:46:15.620Z,16.33
2023-02-11T12:49:11.449Z,12.25
2023-02-11T12:51:55.931Z,19.40
2023-02-11T12:54:31.535Z,18.45
2023-02-11T12:57:02.592Z,16.08
2023-02-11T12:59:44.676Z,18.38
2023-02-11T13:02:30.462Z,28.50
2023-02-11T13:05:12.074Z,18.42
2023-02-11T13:07:44.065Z,12.35
2023-02-11T13:10:13.639Z,20.65
2023-02-11T13:13:01.319Z,15.52
2023-02-11T13:15:30.228Z,14.93
2023-02-11T13:18:02.992Z,12.00
2023-02-11T13:20:29.518Z,16.10
2023-02-11T13:23:11.837Z,17.13
2023-02-11T13:25:55.197Z,24.33
2023-02-11T13:28:46.612Z,13.50
2023-02-11T13:31:16.330Z,15.52
2023-02-11T13:33:44.360Z,37.17
2023-02-11T13:36:14.494Z,34.83
2023-02-11T13:38:41.383Z,19.10
2023-02-11T13:41:23.539Z,14.82
2023-02-11T13:44:23.873Z,10.85
2023-02-11T13:47:02.127Z,14.10
2023-02-11T13:49:36.010Z,12.85
2023-02-11T13:52:05.213Z,13.18
2023-02-11T13:54:34.841Z,21.45
2023-02-11T13:57:19.735Z,17.75
2023-02-11T13:59:49.183Z,14.73
2023-02-11T14:02:52.454Z,11.77
2023-02-11T14:05:50.128Z,19.80
2023-02-11T14:08:39.402Z,12.02
2023-02-11T14:11:16.609Z,26.08
2023-02-11T14:13:49.273Z,16.40
2023-02-11T14:16:36.350Z,54.85
2023-02-11T14:19:05.130Z,22.98
2023-02-11T14:21:34.616Z,126.50
2023-02-11T14:24:01.145Z,34.75
2023-02-11T14:26:56.468Z,19.38
2023-02-11T14:29:25.481Z,28.75
2023-02-11T14:32:00.523Z,32.95
2023-02-11T14:34:33.113Z,22.30
2023-02-11T14:37:11.867Z,40.08
2023-02-11T14:40:01.830Z,36.70
2023-02-11T14:42:29.205Z,19.27
2023-02-11T14:44:58.799Z,17.60
2023-02-11T14:47:43.771Z,30.20
2023-02-11T14:50:36.417Z,18.42
2023-02-11T14:53:03.128Z,13.68
2023-02-11T14:55:39.090Z,12.75
2023-02-11T14:58:08.253Z,12.73
2023-02-11T15:00:35.025Z,11.32
2023-02-11T15:03:01.693Z,10.70
2023-02-11T15:05:31.801Z,15.00
2023-02-11T15:08:00.143Z,10.90
2023-02-11T15:10:41.324Z,11.73
2023-02-11T15:13:08.293Z,11.98
2023-02-11T15:15:37.844Z,8.50
2023-02-11T15:18:05.020Z,11.75
2023-02-11T15:20:32.667Z,11.25
2023-02-11T15:23:02.284Z,12.82
2023-02-11T15:25:29.177Z,17.08
2023-02-11T15:27:57.694Z,9.35
2023-02-11T15:30:24.881Z,9.40
2023-02-11T15:33:03.235Z,14.60
2023-02-11T15:35:36.765Z,14.05
2023-02-11T15:38:04.335Z,11.23
2023-02-11T15:40:33.186Z,5.78
2023-02-11T15:43:07.890Z,13.75
2023-02-11T15:45:43.096Z,16.02
2023-02-11T15:48:26.612Z,12.25
2023-02-11T15:51:01.394Z,18.17
2023-02-11T15:53:34.302Z,11.43
2023-02-11T15:56:08.775Z,11.57
2023-02-11T15:58:40.655Z,9.50
2023-02-11T16:01:08.102Z,11.32
2023-02-11T16:03:35.009Z,46.45
2023-02-11T16:06:16.155Z,35.10
2023-02-11T16:08:43.184Z,17.50
2023-02-11T16:11:25.742Z,38.75
2023-02-11T16:13:52.364Z,92.85
2023-02-11T16:16:24.450Z,64.28
2023-02-11T16:19:04.389Z,36.35
2023-02-11T16:21:35.608Z,22.38
2023-02-11T16:24:02.668Z,38.88
2023-02-11T16:26:34.864Z,25.55
2023-02-11T16:29:11.736Z,18.88
2023-02-11T16:31:41.159Z,23.70
2023-02-11T16:34:25.690Z,22.20
2023-02-11T16:36:52.748Z,117.95
2023-02-11T16:39:23.290Z,100.25
2023-02-11T16:41:51.126Z,47.80
2023-02-11T16:44:18.104Z,31.00
2023-02-11T16:46:44.974Z,15.25
2023-02-11T16:49:23.276Z,11.13
2023-02-11T16:51:52.982Z,17.35
2023-02-11T16:54:20.115Z,11.77
2023-02-11T16:56:46.766Z,10.80
2023-02-11T16:59:13.381Z,12.57
2023-02-11T17:01:41.554Z,14.23
2023-02-11T17:04:21.295Z,13.27
2023-02-11T17:06:50.770Z,15.52
2023-02-11T17:09:19.768Z,12.80
2023-02-11T17:11:46.378Z,11.38
2023-02-11T17:14:13.011Z,14.05
2023-02-11T17:16:40.157Z,12.32
2023-02-11T17:19:06.840Z,18.33
2023-02-11T17:21:33.625Z,11.25
2023-02-11T17:24:00.217Z,15.05
2023-02-11T17:26:26.850Z,18.42
2023-02-11T17:28:53.476Z,14.27
2023-02-11T17:31:20.168Z,11.18
2023-02-11T17:33:48.317Z,19.75
2023-02-11T17:36:14.880Z,10.98
2023-02-11T17:38:41.457Z,15.15
2023-02-11T17:41:08.036Z,17.73
2023-02-11T17:43:34.759Z,16.13
2023-02-11T17:46:01.516Z,11.40
2023-02-11T17:48:28.258Z,14.40
2023-02-11T17:50:54.853Z,35.55
2023-02-11T17:53:21.611Z,21.65
2023-02-11T17:55:48.429Z,19.75
2023-02-11T17:58:15.340Z,18.40
2023-02-11T18:00:42.900Z,25.67
2023-02-11T18:03:09.638Z,45.13
2023-02-11T18:05:36.857Z,27.67
2023-02-11T18:08:07.822Z,34.53
2023-02-11T18:10:34.650Z,24.42
2023-02-11T18:13:01.670Z,21.42
2023-02-11T18:15:28.289Z,52.47
2023-02-11T18:17:55.653Z,24.63
2023-02-11T18:20:22.218Z,38.28
2023-02-11T18:22:48.896Z,31.23
2023-02-11T18:25:15.859Z,32.97
2023-02-11T18:27:43.053Z,19.27
2023-02-11T18:30:15.608Z,45.30
2023-02-11T18:32:42.299Z,36.13
2023-02-11T18:35:14.767Z,57.03
2023-02-11T18:37:42.533Z,23.10
2023-02-11T18:40:10.767Z,26.83
2023-02-11T18:42:37.520Z,18.08
2023-02-11T18:45:12.233Z,19.63
2023-02-11T18:47:39.319Z,18.13
2023-02-11T18:50:06.989Z,19.50
2023-02-11T18:52:36.817Z,28.60
2023-02-11T18:55:03.996Z,14.90
2023-02-11T18:57:30.710Z,21.52
2023-02-11T18:59:57.310Z,29.08
2023-02-11T19:02:24.980Z,34.67
2023-02-11T19:04:51.623Z,28.63
2023-02-11T19:07:18.485Z,16.83
2023-02-11T19:09:45.053Z,43.08
2023-02-11T19:12:11.974Z,43.22
2023-02-11T19:14:38.715Z,59.25
2023-02-11T19:17:07.222Z,23.45
2023-02-11T19:19:35.576Z,15.77
2023-02-11T19:22:03.676Z,22.05
2023-02-11T19:24:30.686Z,27.75
2023-02-11T19:26:59.391Z,23.23
2023-02-11T19:29:26.781Z,25.67
2023-02-11T19:31:53.992Z,16.10
2023-02-11T19:34:21.392Z,15.82
2023-02-11T19:36:49.203Z,21.90
2023-02-11T19:39:15.790Z,19.23
2023-02-11T19:41:42.695Z,17.23
2023-02-11T19:44:09.533Z,16.00
2023-02-11T19:46:38.024Z,13.55
2023-02-11T19:49:05.140Z,16.33
2023-02-11T19:51:33.504Z,15.85
2023-02-11T19:54:00.443Z,14.48
2023-02-11T19:56:28.713Z,14.40
2023-02-11T19:58:55.570Z,16.05
2023-02-11T20:01:23.398Z,14.95
2023-02-11T20:03:51.606Z,12.43
2023-02-11T20:06:23.455Z,15.07
2023-02-11T20:08:59.245Z,15.70
2023-02-11T20:11:27.985Z,20.63
2023-02-11T20:13:55.285Z,13.13
2023-02-11T20:16:27.023Z,15.35
2023-02-11T20:19:00.875Z,10.68
2023-02-11T20:21:32.008Z,18.80
2023-02-11T20:23:59.033Z,16.38
2023-02-11T20:26:28.038Z,19.08
2023-02-11T20:28:55.861Z,13.23
2023-02-11T20:31:23.876Z,16.73
2023-02-11T20:33:50.671Z,16.85
2023-02-11T20:36:23.451Z,16.45
2023-02-11T20:38:50.580Z,19.17
2023-02-11T20:41:20.132Z,14.15
2023-02-11T20:43:51.762Z,15.32
2023-02-11T20:46:20.557Z,12.07
2023-02-11T20:48:47.346Z,16.80
2023-02-11T20:51:16.380Z,17.75
2023-02-11T20:53:47.824Z,16.40
2023-02-11T20:56:15.133Z,12.63
2023-02-11T20:58:42.010Z,12.75
2023-02-11T21:01:16.663Z,13.48
2023-02-11T21:03:44.683Z,17.75
2023-02-11T21:06:11.879Z,17.20
2023-02-11T21:08:38.527Z,14.10
2023-02-11T21:11:08.835Z,24.83
2023-02-11T21:13:36.684Z,20.13
2023-02-11T21:16:04.215Z,19.70
2023-02-11T21:18:31.210Z,21.05
2023-02-11T21:20:57.777Z,16.73
2023-02-11T21:23:24.877Z,18.50
2023-02-11T21:25:53.532Z,17.73
2023-02-11T21:28:25.984Z,18.75
2023-02-11T21:30:56.944Z,20.15
2023-02-11T21:33:27.582Z,21.55
2023-02-11T21:35:56.344Z,19.10
2023-02-11T21:38:23.134Z,20.70
2023-02-11T21:40:50.163Z,16.08
2023-02-11T21:43:16.890Z,19.60
2023-02-11T21:45:44.427Z,22.95
2023-02-11T21:48:11.664Z,24.35
2023-02-11T21:50:40.142Z,17.98
2023-02-11T21:53:07.158Z,17.90
2023-02-11T21:55:33.958Z,23.95
2023-02-11T21:58:00.526Z,20.55
2023-02-11T22:00:27.489Z,19.63
2023-02-11T22:02:54.527Z,22.85
2023-02-11T22:05:21.263Z,25.98
2023-02-11T22:07:48.294Z,24.20
2023-02-11T22:10:15.230Z,25.23
2023-02-11T22:12:42.100Z,23.55
2023-02-11T22:15:09.158Z,20.20
2023-02-11T22:17:35.824Z,26.30
2023-02-11T22:20:02.380Z,21.75
2023-02-11T22:22:29.300Z,22.17
2023-02-11T22:24:56.102Z,19.25
2023-02-11T22:27:22.962Z,24.17
2023-02-11T22:29:49.537Z,23.40
2023-02-11T22:32:17.781Z,25.55
2023-02-11T22:34:44.661Z,27.20
2023-02-11T22:37:11.393Z,24.15
2023-02-11T22:39:38.292Z,29.27
2023-02-11T22:42:05.058Z,30.63
2023-02-11T22:44:31.802Z,25.85
2023-02-11T22:46:58.398Z,25.40
2023-02-11T22:49:25.108Z,26.98
2023-02-11T22:51:51.711Z,22.50
2023-02-11T22:54:19.345Z,24.80
2023-02-11T22:56:46.175Z,28.23
2023-02-11T22:59:14.391Z,31.95
2023-02-11T23:01:41.671Z,26.15
2023-02-11T23:04:10.874Z,28.92
2023-02-11T23:06:37.734Z,25.20
2023-02-11T23:09:06.108Z,30.27
2023-02-11T23:11:33.040Z,29.13
2023-02-11T23:14:01.095Z,23.77
2023-02-11T23:16:31.214Z,21.63
2023-02-11T23:19:03.561Z,27.20
2023-02-11T23:21:31.660Z,26.60
2023-02-11T23:24:01.153Z,25.77
2023-02-11T23:26:28.673Z,26.50
2023-02-11T23:28:56.231Z,23.05
2023-02-11T23:31:25.703Z,26.48
2023-02-11T23:33:52.817Z,31.15
2023-02-11T23:36:20.565Z,26.50
2023-02-11T23:38:47.774Z,25.27
2023-02-11T23:41:14.687Z,29.23
2023-02-11T23:43:41.731Z,16.90
2023-02-11T23:46:08.974Z,24.90
2023-02-11T23:48:37.646Z,26.92
2023-02-11T23:51:04.625Z,27.25
2023-02-11T23:53:31.264Z,23.52
2023-02-11T23:55:58.046Z,32.90
2023-02-11T23:58:24.645Z,26.90
